sensor_id;sensor_type;location;lat;lon;timestamp;pressure;altitude;pressure_sealevel;temperature;humidity
11448;BME280;43755;49.736;8.734;2023-04-03T00:02:00;98774.19;;;1.05;100.00
11448;BME280;43755;49.736;8.734;2023-04-03T00:04:02;98772.47;;;1.05;100.00
11448;BME280;43755;49.736;8.734;2023-04-03T00:06:04;98775.94;;;1.06;100.00
11448;BME280;43755;49.736;8.734;2023-04-03T00:08:06;98782.00;;;1.03;100.00
11448;BME280;43755;49.736;8.734;2023-04-03T00:10:10;98777.66;;;1.04;100.00
11448;BME280;43755;49.736;8.734;2023-04-03T00:12:11;98774.25;;;1.11;100.00
11448;BME280;43755;49.736;8.734;2023-04-03T00:14:13;98775.94;;;1.09;100.00
11448;BME280;43755;49.736;8.734;2023-04-03T00:16:16;98769.84;;;1.04;100.00
11448;BME280;43755;49.736;8.734;2023-04-03T00:18:17;98775.00;;;1.01;100.00
11448;BME280;43755;49.736;8.734;2023-04-03T00:20:19;98775.84;;;0.95;100.00
11448;BME280;43755;49.736;8.734;2023-04-03T00:22:20;98786.28;;;0.94;100.00
11448;BME280;43755;49.736;8.734;2023-04-03T00:24:22;98781.13;;;1.04;100.00
11448;BME280;43755;49.736;8.734;2023-04-03T00:26:23;98777.69;;;1.05;100.00
11448;BME280;43755;49.736;8.734;2023-04-03T00:28:24;98779.38;;;0.99;100.00
11448;BME280;43755;49.736;8.734;2023-04-03T00:30:27;98772.41;;;0.98;100.00
11448;BME280;43755;49.736;8.734;2023-04-03T00:32:29;98777.56;;;0.92;100.00
11448;BME280;43755;49.736;8.734;2023-04-03T00:34:31;98781.00;;;0.89;100.00
11448;BME280;43755;49.736;8.734;2023-04-03T00:36:32;98778.38;;;0.85;100.00
11448;BME280;43755;49.736;8.734;2023-04-03T00:38:34;98775.75;;;0.83;100.00
11448;BME280;43755;49.736;8.734;2023-04-03T00:40:37;98783.56;;;0.81;100.00
11448;BME280;43755;49.736;8.734;2023-04-03T00:42:40;98780.97;;;0.85;100.00
11448;BME280;43755;49.736;8.734;2023-04-03T00:45:23;98783.50;;;0.77;100.00
11448;BME280;43755;49.736;8.734;2023-04-03T00:47:25;98785.19;;;0.69;100.00
11448;BME280;43755;49.736;8.734;2023-04-03T00:49:28;98791.25;;;0.65;100.00
11448;BME280;43755;49.736;8.734;2023-04-03T00:51:30;98799.84;;;0.56;100.00
11448;BME280;43755;49.736;8.734;2023-04-03T00:53:33;98796.28;;;0.50;100.00
11448;BME280;43755;49.736;8.734;2023-04-03T00:55:37;98794.47;;;0.43;100.00
11448;BME280;43755;49.736;8.734;2023-04-03T00:57:39;98793.56;;;0.34;100.00
11448;BME280;43755;49.736;8.734;2023-04-03T00:59:44;98794.44;;;0.35;100.00
11448;BME280;43755;49.736;8.734;2023-04-03T01:01:47;98794.34;;;0.29;100.00
11448;BME280;43755;49.736;8.734;2023-04-03T01:03:49;98795.19;;;0.26;100.00
11448;BME280;43755;49.736;8.734;2023-04-03T01:05:52;98790.91;;;0.31;100.00
11448;BME280;43755;49.736;8.734;2023-04-03T01:07:55;98790.94;;;0.34;100.00
11448;BME280;43755;49.736;8.734;2023-04-03T01:09:58;98796.06;;;0.30;100.00
11448;BME280;43755;49.736;8.734;2023-04-03T01:12:13;98797.84;;;0.29;100.00
11448;BME280;43755;49.736;8.734;2023-04-03T01:14:16;98791.75;;;0.27;100.00
11448;BME280;43755;49.736;8.734;2023-04-03T01:16:17;98789.09;;;0.26;100.00
11448;BME280;43755;49.736;8.734;2023-04-03T01:18:20;98793.47;;;0.27;100.00
11448;BME280;43755;49.736;8.734;2023-04-03T01:23:09;98784.91;;;0.38;100.00
11448;BME280;43755;49.736;8.734;2023-04-03T01:25:14;98789.22;;;0.36;100.00
11448;BME280;43755;49.736;8.734;2023-04-03T01:27:15;98790.06;;;0.35;100.00
11448;BME280;43755;49.736;8.734;2023-04-03T01:29:17;98788.31;;;0.33;100.00
11448;BME280;43755;49.736;8.734;2023-04-03T01:31:22;98794.34;;;0.29;100.00
11448;BME280;43755;49.736;8.734;2023-04-03T01:33:27;98789.09;;;0.23;100.00
11448;BME280;43755;49.736;8.734;2023-04-03T01:35:29;98787.28;;;0.19;100.00
11448;BME280;43755;49.736;8.734;2023-04-03T01:37:30;98788.16;;;0.19;100.00
11448;BME280;43755;49.736;8.734;2023-04-03T01:39:31;98789.91;;;0.20;100.00
11448;BME280;43755;49.736;8.734;2023-04-03T01:41:33;98787.28;;;0.19;100.00
11448;BME280;43755;49.736;8.734;2023-04-03T01:43:35;98795.09;;;0.16;100.00
11448;BME280;43755;49.736;8.734;2023-04-03T01:45:36;98799.28;;;0.06;100.00
11448;BME280;43755;49.736;8.734;2023-04-03T01:47:37;98798.34;;;-0.02;100.00
11448;BME280;43755;49.736;8.734;2023-04-03T01:49:40;98793.97;;;-0.06;100.00
11448;BME280;43755;49.736;8.734;2023-04-03T01:51:42;98793.03;;;-0.13;100.00
11448;BME280;43755;49.736;8.734;2023-04-03T01:53:43;98798.94;;;-0.23;100.00
11448;BME280;43755;49.736;8.734;2023-04-03T01:55:44;98798.06;;;-0.23;100.00
11448;BME280;43755;49.736;8.734;2023-04-03T01:57:46;98800.66;;;-0.23;100.00
11448;BME280;43755;49.736;8.734;2023-04-03T01:59:47;98797.25;;;-0.21;100.00
11448;BME280;43755;49.736;8.734;2023-04-03T02:01:49;98795.53;;;-0.17;100.00
11448;BME280;43755;49.736;8.734;2023-04-03T02:03:50;98802.44;;;-0.24;100.00
11448;BME280;43755;49.736;8.734;2023-04-03T02:05:53;98798.00;;;-0.29;100.00
11448;BME280;43755;49.736;8.734;2023-04-03T02:07:55;98790.13;;;-0.34;100.00
11448;BME280;43755;49.736;8.734;2023-04-03T02:09:56;98802.19;;;-0.42;100.00
11448;BME280;43755;49.736;8.734;2023-04-03T02:11:58;98796.88;;;-0.50;100.00
11448;BME280;43755;49.736;8.734;2023-04-03T02:13:59;98793.38;;;-0.53;100.00
11448;BME280;43755;49.736;8.734;2023-04-03T02:16:06;98798.56;;;-0.52;100.00
11448;BME280;43755;49.736;8.734;2023-04-03T02:18:08;98798.56;;;-0.53;100.00
11448;BME280;43755;49.736;8.734;2023-04-03T02:20:10;98795.97;;;-0.52;100.00
11448;BME280;43755;49.736;8.734;2023-04-03T02:22:12;98795.09;;;-0.54;100.00
11448;BME280;43755;49.736;8.734;2023-04-03T02:24:14;98794.22;;;-0.53;100.00
11448;BME280;43755;49.736;8.734;2023-04-03T02:26:16;98797.59;;;-0.58;100.00
11448;BME280;43755;49.736;8.734;2023-04-03T02:28:18;98806.38;;;-0.53;100.00
11448;BME280;43755;49.736;8.734;2023-04-03T02:30:19;98799.41;;;-0.54;100.00
11448;BME280;43755;49.736;8.734;2023-04-03T02:32:21;98798.63;;;-0.49;100.00
11448;BME280;43755;49.736;8.734;2023-04-03T02:34:22;98802.06;;;-0.50;100.00
11448;BME280;43755;49.736;8.734;2023-04-03T02:36:23;98799.38;;;-0.56;100.00
11448;BME280;43755;49.736;8.734;2023-04-03T02:38:26;98793.25;;;-0.61;100.00
11448;BME280;43755;49.736;8.734;2023-04-03T02:40:28;98785.50;;;-0.59;100.00
11448;BME280;43755;49.736;8.734;2023-04-03T02:42:29;98785.53;;;-0.55;100.00
11448;BME280;43755;49.736;8.734;2023-04-03T02:44:31;98789.91;;;-0.54;100.00
11448;BME280;43755;49.736;8.734;2023-04-03T02:46:32;98796.81;;;-0.53;100.00
11448;BME280;43755;49.736;8.734;2023-04-03T02:48:34;98799.50;;;-0.48;100.00
11448;BME280;43755;49.736;8.734;2023-04-03T02:50:35;98794.22;;;-0.53;100.00
11448;BME280;43755;49.736;8.734;2023-04-03T02:52:37;98800.28;;;-0.52;100.00
11448;BME280;43755;49.736;8.734;2023-04-03T02:54:40;98803.75;;;-0.55;100.00
11448;BME280;43755;49.736;8.734;2023-04-03T02:56:41;98788.06;;;-0.61;100.00
11448;BME280;43755;49.736;8.734;2023-04-03T02:58:43;98795.00;;;-0.60;100.00
11448;BME280;43755;49.736;8.734;2023-04-03T03:00:44;98789.81;;;-0.60;100.00
11448;BME280;43755;49.736;8.734;2023-04-03T03:02:45;98789.88;;;-0.55;100.00
11448;BME280;43755;49.736;8.734;2023-04-03T03:04:47;98789.81;;;-0.58;100.00
11448;BME280;43755;49.736;8.734;2023-04-03T03:06:48;98792.34;;;-0.63;100.00
11448;BME280;43755;49.736;8.734;2023-04-03T03:08:52;98789.72;;;-0.66;100.00
11448;BME280;43755;49.736;8.734;2023-04-03T03:10:55;98785.31;;;-0.70;100.00
11448;BME280;43755;49.736;8.734;2023-04-03T03:12:56;98781.84;;;-0.70;100.00
11448;BME280;43755;49.736;8.734;2023-04-03T03:14:58;98786.19;;;-0.71;100.00
11448;BME280;43755;49.736;8.734;2023-04-03T03:16:59;98788.78;;;-0.71;100.00
11448;BME280;43755;49.736;8.734;2023-04-03T03:19:01;98791.47;;;-0.65;100.00
11448;BME280;43755;49.736;8.734;2023-04-03T03:21:03;98785.50;;;-0.58;100.00
11448;BME280;43755;49.736;8.734;2023-04-03T03:23:04;98781.94;;;-0.64;100.00
11448;BME280;43755;49.736;8.734;2023-04-03T03:25:06;98785.38;;;-0.67;100.00
11448;BME280;43755;49.736;8.734;2023-04-03T03:27:09;98787.94;;;-0.68;100.00
11448;BME280;43755;49.736;8.734;2023-04-03T03:29:12;98790.50;;;-0.70;100.00
11448;BME280;43755;49.736;8.734;2023-04-03T03:31:13;98790.53;;;-0.68;100.00
11448;BME280;43755;49.736;8.734;2023-04-03T03:33:15;98795.66;;;-0.74;100.00
11448;BME280;43755;49.736;8.734;2023-04-03T03:35:17;98787.03;;;-0.70;100.00
11448;BME280;43755;49.736;8.734;2023-04-03T03:37:18;98784.28;;;-0.81;100.00
11448;BME280;43755;49.736;8.734;2023-04-03T03:39:20;98790.44;;;-0.77;100.00
11448;BME280;43755;49.736;8.734;2023-04-03T03:41:21;98789.63;;;-0.73;100.00
11448;BME280;43755;49.736;8.734;2023-04-03T03:43:24;98795.63;;;-0.77;100.00
11448;BME280;43755;49.736;8.734;2023-04-03T03:45:26;98788.69;;;-0.78;100.00
11448;BME280;43755;49.736;8.734;2023-04-03T03:47:27;98792.06;;;-0.84;100.00
11448;BME280;43755;49.736;8.734;2023-04-03T03:49:29;98781.66;;;-0.84;100.00
11448;BME280;43755;49.736;8.734;2023-04-03T03:51:30;98790.38;;;-0.80;100.00
11448;BME280;43755;49.736;8.734;2023-04-03T03:53:31;98795.53;;;-0.84;100.00
11448;BME280;43755;49.736;8.734;2023-04-03T03:55:33;98788.53;;;-0.88;100.00
11448;BME280;43755;49.736;8.734;2023-04-03T03:57:34;98791.13;;;-0.89;100.00
11448;BME280;43755;49.736;8.734;2023-04-03T03:59:37;98792.94;;;-0.82;100.00
11448;BME280;43755;49.736;8.734;2023-04-03T04:01:41;98792.09;;;-0.81;100.00
11448;BME280;43755;49.736;8.734;2023-04-03T04:03:42;98792.09;;;-0.82;100.00
11448;BME280;43755;49.736;8.734;2023-04-03T04:05:44;98793.78;;;-0.85;100.00
11448;BME280;43755;49.736;8.734;2023-04-03T04:07:45;98804.22;;;-0.80;100.00
11448;BME280;43755;49.736;8.734;2023-04-03T04:09:46;98788.63;;;-0.82;100.00
11448;BME280;43755;49.736;8.734;2023-04-03T04:11:48;98800.03;;;-0.72;100.00
11448;BME280;43755;49.736;8.734;2023-04-03T04:13:49;98797.44;;;-0.72;100.00
11448;BME280;43755;49.736;8.734;2023-04-03T04:15:52;98796.56;;;-0.72;100.00
11448;BME280;43755;49.736;8.734;2023-04-03T04:17:53;98794.84;;;-0.72;100.00
11448;BME280;43755;49.736;8.734;2023-04-03T04:19:55;98793.00;;;-0.79;100.00
11448;BME280;43755;49.736;8.734;2023-04-03T04:21:56;98788.69;;;-0.75;100.00
11448;BME280;43755;49.736;8.734;2023-04-03T04:23:58;98799.16;;;-0.72;100.00
11448;BME280;43755;49.736;8.734;2023-04-03T04:25:59;98794.91;;;-0.67;100.00
11448;BME280;43755;49.736;8.734;2023-04-03T04:28:00;98797.44;;;-0.70;100.00
11448;BME280;43755;49.736;8.734;2023-04-03T04:30:03;98800.78;;;-0.79;100.00
11448;BME280;43755;49.736;8.734;2023-04-03T04:32:05;98806.91;;;-0.74;100.00
11448;BME280;43755;49.736;8.734;2023-04-03T04:34:09;98800.66;;;-0.87;100.00
11448;BME280;43755;49.736;8.734;2023-04-03T04:36:10;98806.78;;;-0.85;100.00
11448;BME280;43755;49.736;8.734;2023-04-03T04:38:11;98799.09;;;-0.75;100.00
11448;BME280;43755;49.736;8.734;2023-04-03T04:40:13;98805.97;;;-0.80;100.00
11448;BME280;43755;49.736;8.734;2023-04-03T04:42:14;98804.22;;;-0.80;100.00
11448;BME280;43755;49.736;8.734;2023-04-03T04:44:17;98797.28;;;-0.82;100.00
11448;BME280;43755;49.736;8.734;2023-04-03T04:46:18;98801.56;;;-0.85;100.00
11448;BME280;43755;49.736;8.734;2023-04-03T04:48:21;98802.47;;;-0.82;100.00
11448;BME280;43755;49.736;8.734;2023-04-03T04:50:23;98805.91;;;-0.82;100.00
11448;BME280;43755;49.736;8.734;2023-04-03T04:52:24;98793.72;;;-0.88;100.00
11448;BME280;43755;49.736;8.734;2023-04-03T04:54:25;98805.03;;;-0.84;100.00
11448;BME280;43755;49.736;8.734;2023-04-03T04:56:27;98798.13;;;-0.82;100.00
11448;BME280;43755;49.736;8.734;2023-04-03T04:58:28;98805.97;;;-0.80;100.00
11448;BME280;43755;49.736;8.734;2023-04-03T05:00:30;98807.69;;;-0.82;100.00
11448;BME280;43755;49.736;8.734;2023-04-03T05:02:31;98807.69;;;-0.81;100.00
11448;BME280;43755;49.736;8.734;2023-04-03T05:04:34;98804.13;;;-0.86;100.00
11448;BME280;43755;49.736;8.734;2023-04-03T05:06:35;98807.72;;;-0.79;100.00
11448;BME280;43755;49.736;8.734;2023-04-03T05:08:37;98806.91;;;-0.77;100.00
11448;BME280;43755;49.736;8.734;2023-04-03T05:10:39;98809.41;;;-0.82;100.00
11448;BME280;43755;49.736;8.734;2023-04-03T05:12:42;98814.63;;;-0.80;100.00
11448;BME280;43755;49.736;8.734;2023-04-03T05:14:43;98815.34;;;-0.90;100.00
11448;BME280;43755;49.736;8.734;2023-04-03T05:16:45;98821.34;;;-0.93;100.00
11448;BME280;43755;49.736;8.734;2023-04-03T05:18:47;98824.91;;;-0.86;100.00
11448;BME280;43755;49.736;8.734;2023-04-03T05:20:50;98823.97;;;-0.91;100.00
11448;BME280;43755;49.736;8.734;2023-04-03T05:22:51;98824.97;;;-0.85;100.00
11448;BME280;43755;49.736;8.734;2023-04-03T05:24:53;98822.38;;;-0.82;100.00
11448;BME280;43755;49.736;8.734;2023-04-03T05:26:54;98831.91;;;-0.84;100.00
11448;BME280;43755;49.736;8.734;2023-04-03T05:28:56;98831.81;;;-0.88;100.00
11448;BME280;43755;49.736;8.734;2023-04-03T05:30:58;98832.72;;;-0.86;100.00
11448;BME280;43755;49.736;8.734;2023-04-03T05:32:59;98833.63;;;-0.84;100.00
11448;BME280;43755;49.736;8.734;2023-04-03T05:35:01;98824.97;;;-0.82;100.00
11448;BME280;43755;49.736;8.734;2023-04-03T05:37:04;98829.47;;;-0.73;100.00
11448;BME280;43755;49.736;8.734;2023-04-03T05:39:05;98829.56;;;-0.67;100.00
11448;BME280;43755;49.736;8.734;2023-04-03T05:41:06;98833.09;;;-0.62;100.00
11448;BME280;43755;49.736;8.734;2023-04-03T05:43:08;98838.34;;;-0.57;100.00
11448;BME280;43755;49.736;8.734;2023-04-03T05:45:10;98833.19;;;-0.56;100.00
11448;BME280;43755;49.736;8.734;2023-04-03T05:47:12;98838.41;;;-0.53;100.00
11448;BME280;43755;49.736;8.734;2023-04-03T05:49:14;98839.38;;;-0.46;100.00
11448;BME280;43755;49.736;8.734;2023-04-03T05:51:17;98846.31;;;-0.45;100.00
11448;BME280;43755;49.736;8.734;2023-04-03T05:53:22;98844.75;;;-0.34;100.00
11448;BME280;43755;49.736;8.734;2023-04-03T05:55:25;98843.13;;;-0.26;100.00
11448;BME280;43755;49.736;8.734;2023-04-03T05:57:26;98848.53;;;-0.12;100.00
11448;BME280;43755;49.736;8.734;2023-04-03T05:59:28;98841.66;;;-0.04;100.00
11448;BME280;43755;49.736;8.734;2023-04-03T06:01:29;98847.88;;;0.06;100.00
11448;BME280;43755;49.736;8.734;2023-04-03T06:03:31;98850.59;;;0.18;100.00
11448;BME280;43755;49.736;8.734;2023-04-03T06:05:32;98855.97;;;0.31;100.00
11448;BME280;43755;49.736;8.734;2023-04-03T06:07:34;98844.81;;;0.43;100.00
11448;BME280;43755;49.736;8.734;2023-04-03T06:09:37;98853.63;;;0.53;100.00
11448;BME280;43755;49.736;8.734;2023-04-03T06:11:38;98851.03;;;0.56;100.00
11448;BME280;43755;49.736;8.734;2023-04-03T06:13:40;98851.06;;;0.57;100.00
11448;BME280;43755;49.736;8.734;2023-04-03T06:15:42;98858.97;;;0.71;100.00
11448;BME280;43755;49.736;8.734;2023-04-03T06:17:43;98859.94;;;0.79;100.00
11448;BME280;43755;49.736;8.734;2023-04-03T06:19:45;98861.69;;;0.80;100.00
11448;BME280;43755;49.736;8.734;2023-04-03T06:21:46;98860.81;;;0.82;100.00
11448;BME280;43755;49.736;8.734;2023-04-03T06:23:48;98867.84;;;0.88;100.00
11448;BME280;43755;49.736;8.734;2023-04-03T06:25:51;98865.31;;;0.94;100.00
11448;BME280;43755;49.736;8.734;2023-04-03T06:27:52;98874.06;;;1.04;100.00
11448;BME280;43755;49.736;8.734;2023-04-03T06:29:55;98867.28;;;1.24;100.00
11448;BME280;43755;49.736;8.734;2023-04-03T06:31:57;98873.50;;;1.40;100.00
11448;BME280;43755;49.736;8.734;2023-04-03T06:33:58;98871.84;;;1.52;100.00
11448;BME280;43755;49.736;8.734;2023-04-03T06:36:03;98869.34;;;1.69;100.00
11448;BME280;43755;49.736;8.734;2023-04-03T06:38:05;98873.75;;;1.79;100.00
11448;BME280;43755;49.736;8.734;2023-04-03T06:40:15;98879.94;;;1.93;100.00
11448;BME280;43755;49.736;8.734;2023-04-03T06:42:20;98879.09;;;2.06;100.00
11448;BME280;43755;49.736;8.734;2023-04-03T06:44:22;98880.81;;;1.98;100.00
11448;BME280;43755;49.736;8.734;2023-04-03T06:46:24;98878.28;;;2.11;100.00
11448;BME280;43755;49.736;8.734;2023-04-03T06:48:25;98888.66;;;2.00;100.00
11448;BME280;43755;49.736;8.734;2023-04-03T06:50:27;98886.88;;;1.96;100.00
11448;BME280;43755;49.736;8.734;2023-04-03T06:52:28;98884.28;;;1.94;100.00
11448;BME280;43755;49.736;8.734;2023-04-03T06:54:30;98886.94;;;2.06;100.00
11448;BME280;43755;49.736;8.734;2023-04-03T06:56:31;98891.31;;;2.14;100.00
11448;BME280;43755;49.736;8.734;2023-04-03T06:58:34;98887.03;;;2.22;100.00
11448;BME280;43755;49.736;8.734;2023-04-03T07:00:36;98888.81;;;2.38;100.00
11448;BME280;43755;49.736;8.734;2023-04-03T07:02:37;98892.31;;;2.47;100.00
11448;BME280;43755;49.736;8.734;2023-04-03T07:04:39;98893.22;;;2.50;100.00
11448;BME280;43755;49.736;8.734;2023-04-03T07:06:40;98896.75;;;2.64;100.00
11448;BME280;43755;49.736;8.734;2023-04-03T07:08:43;98901.97;;;2.59;100.00
11448;BME280;43755;49.736;8.734;2023-04-03T07:10:44;98903.69;;;2.60;100.00
11448;BME280;43755;49.736;8.734;2023-04-03T07:12:46;98902.84;;;2.61;100.00
11448;BME280;43755;49.736;8.734;2023-04-03T07:14:49;98905.31;;;2.23;100.00
11448;BME280;43755;49.736;8.734;2023-04-03T07:16:50;98901.78;;;2.18;100.00
11448;BME280;43755;49.736;8.734;2023-04-03T07:18:51;98907.06;;;2.26;100.00
11448;BME280;43755;49.736;8.734;2023-04-03T07:20:53;98912.34;;;2.42;100.00
11448;BME280;43755;49.736;8.734;2023-04-03T07:22:54;98906.31;;;2.53;100.00
11448;BME280;43755;49.736;8.734;2023-04-03T07:24:56;98915.06;;;2.73;100.00
11448;BME280;43755;49.736;8.734;2023-04-03T07:26:59;98909.88;;;2.82;100.00
11448;BME280;43755;49.736;8.734;2023-04-03T07:29:00;98913.41;;;3.05;100.00
11448;BME280;43755;49.736;8.734;2023-04-03T07:31:05;98926.47;;;3.14;100.00
11448;BME280;43755;49.736;8.734;2023-04-03T07:33:08;98903.81;;;3.27;100.00
11448;BME280;43755;49.736;8.734;2023-04-03T07:35:09;98909.94;;;3.58;100.00
11448;BME280;43755;49.736;8.734;2023-04-03T07:37:12;98911.66;;;3.76;100.00
11448;BME280;43755;49.736;8.734;2023-04-03T07:39:14;98913.41;;;3.81;100.00
11448;BME280;43755;49.736;8.734;2023-04-03T07:41:17;98913.38;;;3.84;100.00
11448;BME280;43755;49.736;8.734;2023-04-03T07:43:22;98913.38;;;4.05;100.00
11448;BME280;43755;49.736;8.734;2023-04-03T07:45:25;98923.00;;;3.81;100.00
11448;BME280;43755;49.736;8.734;2023-04-03T07:47:29;98915.13;;;3.97;100.00
11448;BME280;43755;49.736;8.734;2023-04-03T07:49:31;98914.22;;;4.12;100.00
11448;BME280;43755;49.736;8.734;2023-04-03T07:51:33;98915.94;;;4.15;100.00
11448;BME280;43755;49.736;8.734;2023-04-03T07:53:34;98917.69;;;4.17;100.00
11448;BME280;43755;49.736;8.734;2023-04-03T07:55:36;98922.91;;;4.29;100.00
11448;BME280;43755;49.736;8.734;2023-04-03T07:57:43;98921.09;;;4.40;100.00
11448;BME280;43755;49.736;8.734;2023-04-03T07:59:44;98920.22;;;4.46;100.00
11448;BME280;43755;49.736;8.734;2023-04-03T08:01:45;98929.84;;;4.32;100.00
11448;BME280;43755;49.736;8.734;2023-04-03T08:03:48;98921.88;;;4.65;100.00
11448;BME280;43755;49.736;8.734;2023-04-03T08:05:50;98928.03;;;4.58;96.05
11448;BME280;43755;49.736;8.734;2023-04-03T08:07:53;98932.31;;;4.71;88.55
11448;BME280;43755;49.736;8.734;2023-04-03T08:09:55;98924.34;;;4.91;99.23
11448;BME280;43755;49.736;8.734;2023-04-03T08:11:57;98927.00;;;4.88;90.54
11448;BME280;43755;49.736;8.734;2023-04-03T08:13:58;98928.78;;;4.78;88.33
11448;BME280;43755;49.736;8.734;2023-04-03T08:16:07;98919.94;;;4.96;92.64
11448;BME280;43755;49.736;8.734;2023-04-03T08:18:09;98932.13;;;5.11;91.57
11448;BME280;43755;49.736;8.734;2023-04-03T08:20:12;98929.41;;;5.20;92.67
11448;BME280;43755;49.736;8.734;2023-04-03T08:22:13;98938.34;;;4.91;88.61
11448;BME280;43755;49.736;8.734;2023-04-03T08:24:16;98928.97;;;4.33;86.92
11448;BME280;43755;49.736;8.734;2023-04-03T08:26:19;98930.72;;;4.34;86.16
11448;BME280;43755;49.736;8.734;2023-04-03T08:28:21;98937.78;;;4.18;92.69
11448;BME280;43755;49.736;8.734;2023-04-03T08:30:22;98936.84;;;4.25;94.50
11448;BME280;43755;49.736;8.734;2023-04-03T08:32:24;98939.53;;;4.05;84.01
11448;BME280;43755;49.736;8.734;2023-04-03T08:34:25;98936.09;;;3.87;83.79
11448;BME280;43755;49.736;8.734;2023-04-03T08:36:29;98937.84;;;3.76;84.50
11448;BME280;43755;49.736;8.734;2023-04-03T08:38:30;98938.69;;;3.73;89.90
11448;BME280;43755;49.736;8.734;2023-04-03T08:40:32;98937.84;;;3.57;82.26
11448;BME280;43755;49.736;8.734;2023-04-03T08:42:46;98932.59;;;3.62;84.88
11448;BME280;43755;49.736;8.734;2023-04-03T08:44:55;98927.38;;;3.63;85.40
11448;BME280;43755;49.736;8.734;2023-04-03T08:47:11;98932.63;;;3.65;84.73
11448;BME280;43755;49.736;8.734;2023-04-03T08:49:23;98926.50;;;3.74;84.92
11448;BME280;43755;49.736;8.734;2023-04-03T08:51:29;98916.88;;;3.83;84.23
11448;BME280;43755;49.736;8.734;2023-04-03T08:53:34;98929.09;;;3.81;85.72
11448;BME280;43755;49.736;8.734;2023-04-03T08:55:41;98929.97;;;3.94;88.83
11448;BME280;43755;49.736;8.734;2023-04-03T08:57:45;98928.19;;;4.08;84.00
11448;BME280;43755;49.736;8.734;2023-04-03T08:59:49;98936.03;;;4.17;81.18
11448;BME280;43755;49.736;8.734;2023-04-03T09:01:51;98928.03;;;4.49;83.12
11448;BME280;43755;49.736;8.734;2023-04-03T09:03:53;98935.00;;;4.58;79.92
11448;BME280;43755;49.736;8.734;2023-04-03T09:05:57;98926.31;;;4.45;74.42
11448;BME280;43755;49.736;8.734;2023-04-03T09:08:04;98928.91;;;4.48;78.24
11448;BME280;43755;49.736;8.734;2023-04-03T09:10:10;98923.78;;;4.21;72.50
11448;BME280;43755;49.736;8.734;2023-04-03T09:12:17;98927.25;;;4.29;73.41
11448;BME280;43755;49.736;8.734;2023-04-03T09:14:24;98931.59;;;4.31;72.67
11448;BME280;43755;49.736;8.734;2023-04-03T09:16:36;98921.84;;;4.67;76.92
11448;BME280;43755;49.736;8.734;2023-04-03T09:18:42;98922.59;;;4.94;72.40
11448;BME280;43755;49.736;8.734;2023-04-03T09:20:52;98927.81;;;4.99;71.41
11448;BME280;43755;49.736;8.734;2023-04-03T09:22:55;98928.50;;;5.25;77.11
11448;BME280;43755;49.736;8.734;2023-04-03T09:25:00;98926.91;;;5.05;72.71
11448;BME280;43755;49.736;8.734;2023-04-03T09:27:05;98931.22;;;5.15;73.45
11448;BME280;43755;49.736;8.734;2023-04-03T09:29:08;98936.69;;;4.72;65.92
11448;BME280;43755;49.736;8.734;2023-04-03T09:31:18;98929.75;;;4.64;68.49
11448;BME280;43755;49.736;8.734;2023-04-03T09:33:21;98913.97;;;4.73;66.86
11448;BME280;43755;49.736;8.734;2023-04-03T09:35:25;98920.94;;;4.74;64.60
11448;BME280;43755;49.736;8.734;2023-04-03T09:37:37;98916.53;;;4.85;70.45
11448;BME280;43755;49.736;8.734;2023-04-03T09:39:50;98916.25;;;5.29;71.38
11448;BME280;43755;49.736;8.734;2023-04-03T09:42:01;98915.19;;;5.53;69.52
11448;BME280;43755;49.736;8.734;2023-04-03T09:44:02;98918.59;;;5.61;65.71
11448;BME280;43755;49.736;8.734;2023-04-03T09:46:24;98917.09;;;5.32;63.36
11448;BME280;43755;49.736;8.734;2023-04-03T09:48:26;98917.31;;;4.96;63.54
11448;BME280;43755;49.736;8.734;2023-04-03T09:50:28;98918.97;;;5.18;64.78
11448;BME280;43755;49.736;8.734;2023-04-03T09:52:30;98918.75;;;5.46;67.29
11448;BME280;43755;49.736;8.734;2023-04-03T09:54:34;98927.44;;;5.49;64.93
11448;BME280;43755;49.736;8.734;2023-04-03T09:56:37;98922.34;;;5.31;61.86
11448;BME280;43755;49.736;8.734;2023-04-03T09:58:42;98919.94;;;5.01;62.58
11448;BME280;43755;49.736;8.734;2023-04-03T10:00:54;98918.28;;;4.87;63.08
11448;BME280;43755;49.736;8.734;2023-04-03T10:02:56;98925.16;;;5.02;66.12
11448;BME280;43755;49.736;8.734;2023-04-03T10:04:58;98923.38;;;5.09;61.21
11448;BME280;43755;49.736;8.734;2023-04-03T10:07:00;98915.19;;;5.51;64.15
11448;BME280;43755;49.736;8.734;2023-04-03T10:09:04;98918.59;;;5.64;62.71
11448;BME280;43755;49.736;8.734;2023-04-03T10:11:12;98927.25;;;5.76;58.13
11448;BME280;43755;49.736;8.734;2023-04-03T10:13:15;98915.06;;;5.68;58.86
11448;BME280;43755;49.736;8.734;2023-04-03T10:15:20;98914.81;;;5.98;60.07
11448;BME280;43755;49.736;8.734;2023-04-03T10:17:29;98924.13;;;6.28;57.54
11448;BME280;43755;49.736;8.734;2023-04-03T10:19:39;98916.50;;;6.02;54.41
11448;BME280;43755;49.736;8.734;2023-04-03T10:21:46;98919.94;;;6.09;56.07
11448;BME280;43755;49.736;8.734;2023-04-03T10:23:51;98918.44;;;5.77;55.75
11448;BME280;43755;49.736;8.734;2023-04-03T10:26:04;98920.50;;;5.47;56.30
11448;BME280;43755;49.736;8.734;2023-04-03T10:28:16;98904.78;;;5.41;63.69
11448;BME280;43755;49.736;8.734;2023-04-03T10:30:31;98913.47;;;5.50;61.64
11448;BME280;43755;49.736;8.734;2023-04-03T10:32:46;98914.13;;;5.76;62.08
11448;BME280;43755;49.736;8.734;2023-04-03T10:34:56;98906.13;;;5.86;56.91
11448;BME280;43755;49.736;8.734;2023-04-03T10:37:05;98908.44;;;6.22;59.06
11448;BME280;43755;49.736;8.734;2023-04-03T10:39:19;98915.16;;;6.47;59.87
11448;BME280;43755;49.736;8.734;2023-04-03T10:41:34;98910.56;;;6.63;57.71
11448;BME280;43755;49.736;8.734;2023-04-03T10:43:44;98911.44;;;6.64;54.83
11448;BME280;43755;49.736;8.734;2023-04-03T10:45:57;98914.88;;;6.70;54.24
11448;BME280;43755;49.736;8.734;2023-04-03T10:48:04;98913.63;;;6.28;51.78
11448;BME280;43755;49.736;8.734;2023-04-03T10:50:25;98909.44;;;6.10;53.28
11448;BME280;43755;49.736;8.734;2023-04-03T10:52:33;98906.66;;;6.23;55.18
11448;BME280;43755;49.736;8.734;2023-04-03T10:54:41;98912.66;;;6.34;54.13
11448;BME280;43755;49.736;8.734;2023-04-03T10:56:48;98904.59;;;6.50;58.95